createdAt,value
2022-08-22T00:01:40.429Z,2.90
2022-08-22T00:02:52.695Z,2.10
2022-08-22T00:04:36.299Z,2.83
2022-08-22T00:07:05.437Z,2.95
2022-08-22T00:09:47.102Z,2.72
2022-08-22T00:12:41.611Z,2.90
2022-08-22T00:15:42.063Z,2.58
2022-08-22T00:18:17.410Z,3.60
2022-08-22T00:21:25.469Z,3.22
2022-08-22T00:24:19.787Z,3.00
2022-08-22T00:27:12.069Z,3.00
2022-08-22T00:30:12.131Z,2.80
2022-08-22T00:33:17.239Z,3.10
2022-08-22T00:35:51.614Z,3.58
2022-08-22T00:38:47.747Z,2.65
2022-08-22T00:42:35.164Z,2.90
2022-08-22T00:45:20.390Z,3.17
2022-08-22T00:47:58.436Z,3.47
2022-08-22T00:51:01.453Z,3.03
2022-08-22T00:53:42.827Z,3.88
2022-08-22T00:56:37.416Z,3.33
2022-08-22T00:59:25.275Z,3.63
2022-08-22T01:02:19.675Z,3.75
2022-08-22T01:05:38.654Z,3.63
2022-08-22T01:08:18.116Z,3.13
2022-08-22T01:11:05.282Z,3.03
2022-08-22T01:13:50.428Z,3.47
2022-08-22T01:17:06.744Z,3.70
2022-08-22T01:20:16.808Z,3.20
2022-08-22T01:23:20.089Z,3.70
2022-08-22T01:26:11.156Z,4.07
2022-08-22T01:29:03.227Z,4.30
2022-08-22T01:31:59.657Z,3.90
2022-08-22T01:34:51.285Z,3.70
2022-08-22T01:38:25.761Z,3.60
2022-08-22T01:41:10.517Z,4.63
2022-08-22T01:44:13.402Z,3.85
2022-08-22T01:46:54.443Z,3.92
2022-08-22T01:49:54.469Z,3.85
2022-08-22T01:52:42.469Z,4.63
2022-08-22T01:55:31.744Z,4.68
2022-08-22T01:58:16.605Z,4.18
2022-08-22T02:01:16.826Z,4.00
2022-08-22T02:04:30.262Z,3.65
2022-08-22T02:07:07.076Z,4.30
2022-08-22T02:09:59.287Z,4.32
2022-08-22T02:13:33.394Z,4.72
2022-08-22T02:16:12.402Z,4.65
2022-08-22T02:19:20.945Z,4.03
2022-08-22T02:22:05.676Z,4.22
2022-08-22T02:24:57.349Z,5.00
2022-08-22T02:27:44.687Z,5.15
2022-08-22T02:30:28.103Z,5.07
2022-08-22T02:33:15.266Z,5.75
2022-08-22T02:36:04.919Z,3.78
2022-08-22T02:39:13.512Z,4.45
2022-08-22T02:41:55.500Z,5.07
2022-08-22T02:44:38.386Z,4.88
2022-08-22T02:47:32.907Z,5.15
2022-08-22T02:50:31.169Z,5.57
2022-08-22T02:53:27.750Z,5.00
2022-08-22T02:56:53.404Z,4.20
2022-08-22T03:00:00.060Z,5.03
2022-08-22T03:02:39.677Z,5.13
2022-08-22T03:05:38.205Z,5.97
2022-08-22T03:08:16.733Z,5.32
2022-08-22T03:11:03.885Z,5.55
2022-08-22T03:14:04.724Z,5.32
2022-08-22T03:16:49.332Z,6.45
2022-08-22T03:19:24.844Z,5.85
2022-08-22T03:22:00.335Z,5.30
2022-08-22T03:25:13.285Z,5.40
2022-08-22T03:28:00.010Z,5.47
2022-08-22T03:30:38.912Z,5.65
2022-08-22T03:33:22.408Z,5.90
2022-08-22T03:36:06.455Z,6.03
2022-08-22T03:38:33.030Z,5.40
2022-08-22T03:41:24.547Z,6.30
2022-08-22T03:44:54.782Z,6.22
2022-08-22T03:48:02.332Z,5.93
2022-08-22T03:51:03.806Z,6.07
2022-08-22T03:53:42.342Z,5.28
2022-08-22T03:56:25.760Z,5.75
2022-08-22T03:59:31.716Z,6.32
2022-08-22T04:02:41.801Z,6.57
2022-08-22T04:05:46.719Z,5.88
2022-08-22T04:08:44.744Z,6.13
2022-08-22T04:11:39.242Z,5.70
2022-08-22T04:14:27.621Z,5.55
2022-08-22T04:17:33.225Z,5.00
2022-08-22T04:20:34.587Z,6.07
2022-08-22T04:23:31.609Z,5.50
2022-08-22T04:26:15.609Z,5.72
2022-08-22T04:28:52.340Z,5.43
2022-08-22T04:31:27.843Z,6.53
2022-08-22T04:34:03.705Z,6.07
2022-08-22T04:36:43.199Z,6.60
2022-08-22T04:39:45.216Z,5.90
2022-08-22T04:42:32.725Z,5.13
2022-08-22T04:45:25.485Z,5.25
2022-08-22T04:48:37.596Z,6.15
2022-08-22T04:51:50.772Z,5.32
2022-08-22T04:54:37.011Z,5.47
2022-08-22T04:59:38.689Z,5.68
2022-08-22T05:02:11.176Z,5.60
2022-08-22T05:04:47.983Z,5.93
2022-08-22T05:07:27.404Z,5.30
2022-08-22T05:10:12.371Z,5.82
2022-08-22T05:12:55.219Z,5.60
2022-08-22T05:15:34.397Z,7.00
2022-08-22T05:18:21.400Z,5.47
2022-08-22T05:20:51.283Z,5.88
2022-08-22T05:23:24.289Z,5.13
2022-08-22T05:25:56.313Z,6.28
2022-08-22T05:29:00.599Z,4.85
2022-08-22T05:31:44.702Z,5.28
2022-08-22T05:34:19.336Z,4.70
2022-08-22T05:37:08.344Z,5.30
2022-08-22T05:39:39.511Z,5.28
2022-08-22T05:42:13.459Z,4.90
2022-08-22T05:44:40.247Z,4.97
2022-08-22T05:47:23.745Z,6.30
2022-08-22T05:49:57.433Z,4.53
2022-08-22T05:52:46.231Z,5.30
2022-08-22T05:55:45.488Z,4.57
2022-08-22T05:58:44.090Z,5.53
2022-08-22T06:01:28.688Z,4.85
2022-08-22T06:04:32.579Z,4.70
2022-08-22T06:07:25.694Z,4.90
2022-08-22T06:10:23.168Z,4.97
2022-08-22T06:12:53.209Z,5.50
2022-08-22T06:15:27.703Z,6.32
2022-08-22T06:18:05.620Z,5.40
2022-08-22T06:20:48.387Z,4.80
2022-08-22T06:23:25.134Z,5.00
2022-08-22T06:25:54.632Z,5.47
2022-08-22T06:28:26.802Z,5.38
2022-08-22T06:30:56.035Z,4.75
2022-08-22T06:33:31.167Z,5.70
2022-08-22T06:36:30.489Z,5.32
2022-08-22T06:39:09.261Z,6.28
2022-08-22T06:41:45.047Z,5.93
2022-08-22T06:44:17.509Z,6.00
2022-08-22T06:46:47.776Z,5.70
2022-08-22T06:49:16.674Z,5.05
2022-08-22T06:51:45.689Z,6.63
2022-08-22T06:54:20.401Z,5.60
2022-08-22T06:56:49.946Z,5.25
2022-08-22T06:59:27.344Z,5.35
2022-08-22T07:02:05.108Z,5.03
2022-08-22T07:04:32.090Z,5.00
2022-08-22T07:07:01.302Z,4.95
2022-08-22T07:09:40.347Z,5.22
2022-08-22T07:12:21.603Z,4.30
2022-08-22T07:14:55.040Z,5.57
2022-08-22T07:17:29.944Z,3.90
2022-08-22T07:20:29.156Z,4.82
2022-08-22T07:23:14.591Z,4.70
2022-08-22T07:28:58.648Z,4.00
2022-08-22T07:32:04.974Z,4.78
2022-08-22T07:37:24.433Z,4.35
2022-08-22T07:40:23.568Z,4.85
2022-08-22T07:43:13.376Z,4.50
2022-08-22T07:45:58.557Z,4.20
2022-08-22T07:51:08.519Z,4.43
2022-08-22T07:54:00.963Z,3.90
2022-08-22T07:56:37.919Z,4.13
2022-08-22T07:59:14.552Z,4.30
2022-08-22T08:01:53.353Z,4.10
2022-08-22T08:04:26.194Z,3.97
2022-08-22T08:06:57.512Z,3.72
2022-08-22T08:09:27.786Z,3.47
2022-08-22T08:11:54.788Z,4.20
2022-08-22T08:14:24.237Z,4.25
2022-08-22T08:17:10.602Z,3.22
2022-08-22T08:19:41.525Z,3.75
2022-08-22T08:22:15.674Z,3.45
2022-08-22T08:24:44.491Z,4.20
2022-08-22T08:27:39.641Z,3.97
2022-08-22T08:30:19.121Z,3.88
2022-08-22T08:32:57.526Z,3.35
2022-08-22T08:36:03.212Z,2.55
2022-08-22T08:38:51.255Z,2.50
2022-08-22T08:42:08.500Z,2.13
2022-08-22T08:44:57.000Z,2.00
2022-08-22T08:47:35.926Z,1.73
2022-08-22T08:50:34.535Z,2.03
2022-08-22T08:53:45.265Z,1.90
2022-08-22T08:56:33.350Z,1.85
2022-08-22T08:59:35.771Z,1.73
2022-08-22T09:02:33.113Z,2.10
2022-08-22T09:05:26.547Z,1.88
2022-08-22T09:08:19.937Z,2.00
2022-08-22T09:11:42.624Z,2.10
2022-08-22T09:15:01.316Z,2.33
2022-08-22T09:17:49.681Z,1.77
2022-08-22T09:20:27.372Z,1.58
2022-08-22T09:23:30.694Z,1.48
2022-08-22T09:26:10.180Z,1.70
2022-08-22T09:28:44.624Z,2.17
2022-08-22T09:31:52.585Z,2.03
2022-08-22T09:34:34.740Z,1.52
2022-08-22T09:37:18.080Z,1.67
2022-08-22T09:39:58.688Z,1.48
2022-08-22T09:42:54.094Z,1.35
2022-08-22T09:46:02.231Z,1.92
2022-08-22T09:48:47.459Z,1.20
2022-08-22T09:51:52.163Z,1.08
2022-08-22T09:54:37.552Z,1.25
2022-08-22T09:57:41.248Z,1.20
2022-08-22T10:00:54.532Z,1.40
2022-08-22T10:03:46.711Z,1.30
2022-08-22T10:06:36.800Z,1.63
2022-08-22T10:09:21.010Z,1.17
2022-08-22T10:12:12.266Z,0.90
2022-08-22T10:15:30.132Z,1.08
2022-08-22T10:18:26.324Z,1.58
2022-08-22T10:21:11.166Z,1.63
2022-08-22T10:23:57.572Z,1.20
2022-08-22T10:27:07.476Z,1.10
2022-08-22T10:30:05.543Z,1.00
2022-08-22T10:33:00.100Z,1.05
2022-08-22T10:35:54.944Z,1.10
2022-08-22T10:38:32.308Z,1.42
2022-08-22T10:41:14.216Z,1.20
2022-08-22T10:44:01.514Z,1.30
2022-08-22T10:47:13.898Z,1.30
2022-08-22T10:49:56.692Z,1.70
2022-08-22T10:52:31.888Z,1.63
2022-08-22T10:55:25.563Z,1.65
2022-08-22T10:58:22.286Z,1.38
2022-08-22T11:00:54.184Z,1.50
2022-08-22T11:04:30.459Z,1.75
2022-08-22T11:09:53.243Z,1.73
2022-08-22T11:12:41.777Z,2.00
2022-08-22T11:15:34.490Z,1.25
2022-08-22T11:18:36.498Z,1.23
2022-08-22T11:21:13.467Z,1.05
2022-08-22T11:23:44.559Z,1.67
2022-08-22T11:26:47.671Z,1.10
2022-08-22T11:29:51.208Z,1.30
2022-08-22T11:32:49.627Z,1.38
2022-08-22T11:35:27.564Z,1.58
2022-08-22T11:38:03.086Z,1.95
2022-08-22T11:41:16.824Z,1.27
2022-08-22T11:44:28.492Z,1.30
2022-08-22T11:46:57.336Z,1.30
2022-08-22T11:49:46.521Z,1.25
2022-08-22T11:52:35.982Z,1.70
2022-08-22T11:55:19.739Z,1.38
2022-08-22T11:57:52.781Z,1.50
2022-08-22T12:00:38.131Z,1.52
2022-08-22T12:03:58.335Z,1.45
2022-08-22T12:07:09.129Z,1.20
2022-08-22T12:10:14.952Z,1.40
2022-08-22T12:13:01.504Z,1.50
2022-08-22T12:15:53.935Z,1.23
2022-08-22T12:18:58.900Z,0.98
2022-08-22T12:21:59.957Z,2.00
2022-08-22T12:25:06.828Z,1.10
2022-08-22T12:27:48.066Z,1.65
2022-08-22T12:30:35.487Z,1.30
2022-08-22T12:33:28.830Z,1.70
2022-08-22T12:35:59.058Z,1.50
2022-08-22T12:39:02.610Z,1.30
2022-08-22T12:41:38.623Z,1.20
2022-08-22T12:44:58.488Z,1.98
2022-08-22T12:48:02.799Z,1.83
2022-08-22T12:50:50.095Z,1.50
2022-08-22T12:53:58.232Z,1.70
2022-08-22T12:57:02.722Z,1.58
2022-08-22T12:59:41.487Z,1.45
2022-08-22T13:02:23.764Z,1.63
2022-08-22T13:05:08.429Z,1.20
2022-08-22T13:07:37.145Z,1.67
2022-08-22T13:10:31.077Z,1.67
2022-08-22T13:12:59.983Z,1.48
2022-08-22T13:16:06.457Z,1.80
2022-08-22T13:18:54.047Z,1.67
2022-08-22T13:21:36.189Z,1.80
2022-08-22T13:24:16.885Z,1.70
2022-08-22T13:26:56.005Z,1.45
2022-08-22T13:29:42.686Z,1.55
2022-08-22T13:32:26.263Z,1.55
2022-08-22T13:34:57.538Z,1.45
2022-08-22T13:37:40.201Z,1.67
2022-08-22T13:40:21.407Z,1.60
2022-08-22T13:42:55.029Z,1.65
2022-08-22T13:45:27.324Z,1.80
2022-08-22T13:48:08.843Z,1.55
2022-08-22T13:51:10.562Z,1.40
2022-08-22T13:54:01.042Z,1.48
2022-08-22T13:56:48.134Z,1.67
2022-08-22T13:59:59.462Z,1.33
2022-08-22T14:02:43.369Z,1.23
2022-08-22T14:05:27.672Z,1.75
2022-08-22T14:08:27.340Z,1.63
2022-08-22T14:11:06.746Z,1.60
2022-08-22T14:13:38.012Z,1.58
2022-08-22T14:16:10.765Z,1.95
2022-08-22T14:18:53.917Z,1.48
2022-08-22T14:21:40.848Z,1.30
2022-08-22T14:24:25.416Z,1.45
2022-08-22T14:27:09.700Z,1.75
2022-08-22T14:29:53.267Z,1.60
2022-08-22T14:32:23.306Z,1.80
2022-08-22T14:35:23.078Z,1.88
2022-08-22T14:38:31.472Z,1.65
2022-08-22T14:41:09.964Z,1.92
2022-08-22T14:44:01.190Z,2.22
2022-08-22T14:46:43.394Z,2.53
2022-08-22T14:49:19.270Z,1.85
2022-08-22T14:51:55.852Z,1.73
2022-08-22T14:54:29.125Z,1.73
2022-08-22T14:56:59.322Z,1.67
2022-08-22T14:59:39.938Z,2.03
2022-08-22T15:02:17.986Z,1.73
2022-08-22T15:04:51.947Z,2.35
2022-08-22T15:07:29.566Z,1.98
2022-08-22T15:10:21.820Z,2.15
2022-08-22T15:12:53.906Z,1.75
2022-08-22T15:15:30.876Z,1.65
2022-08-22T15:17:58.823Z,1.73
2022-08-22T15:20:38.367Z,2.03
2022-08-22T15:23:24.201Z,1.88
2022-08-22T15:26:13.096Z,1.98
2022-08-22T15:28:52.473Z,1.95
2022-08-22T15:31:22.139Z,2.63
2022-08-22T15:33:50.256Z,1.88
2022-08-22T15:36:25.540Z,2.65
2022-08-22T15:39:13.577Z,1.80
2022-08-22T15:41:46.731Z,1.90
2022-08-22T15:44:33.989Z,1.90
2022-08-22T15:47:29.522Z,1.65
2022-08-22T15:50:14.626Z,1.90
2022-08-22T15:53:09.968Z,1.35
2022-08-22T15:55:37.859Z,1.88
2022-08-22T15:58:21.995Z,1.77
2022-08-22T16:01:18.833Z,1.88
2022-08-22T16:04:00.098Z,1.50
2022-08-22T16:06:50.632Z,1.75
2022-08-22T16:09:44.759Z,1.50
2022-08-22T16:12:28.405Z,1.88
2022-08-22T16:14:56.015Z,1.67
2022-08-22T16:17:28.619Z,1.20
2022-08-22T16:20:18.494Z,1.52
2022-08-22T16:22:58.685Z,1.85
2022-08-22T16:25:49.938Z,1.40
2022-08-22T16:28:58.224Z,1.98
2022-08-22T16:31:56.295Z,1.85
2022-08-22T16:34:38.272Z,1.70
2022-08-22T16:37:22.065Z,1.83
2022-08-22T16:40:14.767Z,2.28
2022-08-22T16:42:51.371Z,2.25
2022-08-22T16:45:20.827Z,1.48
2022-08-22T16:47:58.474Z,1.98
2022-08-22T16:50:35.396Z,1.90
2022-08-22T16:53:37.583Z,2.15
2022-08-22T16:56:53.445Z,2.05
2022-08-22T17:00:17.993Z,1.90
2022-08-22T17:03:17.976Z,2.60
2022-08-22T17:06:33.154Z,2.17
2022-08-22T17:09:33.389Z,1.92
2022-08-22T17:12:32.575Z,1.90
2022-08-22T17:15:04.824Z,1.92
2022-08-22T17:18:28.372Z,2.30
2022-08-22T17:21:11.408Z,2.65
2022-08-22T17:24:33.792Z,2.05
2022-08-22T17:27:30.223Z,1.90
2022-08-22T17:30:10.543Z,2.03
2022-08-22T17:33:00.028Z,1.98
2022-08-22T17:36:26.693Z,2.33
2022-08-22T17:39:06.188Z,1.80
2022-08-22T17:42:21.158Z,2.03
2022-08-22T17:45:27.850Z,2.00
2022-08-22T17:48:38.959Z,1.75
2022-08-22T17:51:41.438Z,1.90
2022-08-22T17:54:25.100Z,2.10
2022-08-22T17:57:05.334Z,2.22
2022-08-22T17:59:48.376Z,2.55
2022-08-22T18:02:50.250Z,2.08
2022-08-22T18:05:29.298Z,1.83
2022-08-22T18:08:05.490Z,1.83
2022-08-22T18:10:50.390Z,2.38
2022-08-22T18:13:45.612Z,2.35
2022-08-22T18:16:23.094Z,2.65
2022-08-22T18:18:55.868Z,2.35
2022-08-22T18:21:40.415Z,1.90
2022-08-22T18:24:10.080Z,2.08
2022-08-22T18:26:42.482Z,2.33
2022-08-22T18:29:24.498Z,2.63
2022-08-22T18:32:25.516Z,2.50
2022-08-22T18:34:59.626Z,2.10
2022-08-22T18:37:32.963Z,2.55
2022-08-22T18:40:20.763Z,2.20
2022-08-22T18:43:26.032Z,2.42
2022-08-22T18:45:55.749Z,2.33
2022-08-22T18:49:05.402Z,2.70
2022-08-22T18:51:38.324Z,2.15
2022-08-22T18:56:35.674Z,2.33
2022-08-22T18:59:50.964Z,2.45
2022-08-22T19:02:57.718Z,1.67
2022-08-22T19:06:05.661Z,2.45
2022-08-22T19:09:31.947Z,2.25
2022-08-22T19:12:31.377Z,2.30
2022-08-22T19:15:16.718Z,2.65
2022-08-22T19:17:58.884Z,2.67
2022-08-22T19:20:51.562Z,2.20
2022-08-22T19:23:40.582Z,2.65
2022-08-22T19:26:43.397Z,2.33
2022-08-22T19:29:16.036Z,2.88
2022-08-22T19:31:50.587Z,2.67
2022-08-22T19:34:17.220Z,2.30
2022-08-22T19:36:45.682Z,2.30
2022-08-22T19:39:41.542Z,2.15
2022-08-22T19:42:20.615Z,2.17
2022-08-22T19:45:18.963Z,2.17
2022-08-22T19:47:58.507Z,2.33
2022-08-22T19:50:35.238Z,2.42
2022-08-22T19:53:20.056Z,2.55
2022-08-22T19:56:32.606Z,2.45
2022-08-22T19:59:20.027Z,2.60
2022-08-22T20:02:31.906Z,2.30
2022-08-22T20:05:06.276Z,2.90
2022-08-22T20:08:16.716Z,2.35
2022-08-22T20:11:24.956Z,2.47
2022-08-22T20:13:52.046Z,2.53
2022-08-22T20:16:41.544Z,2.13
2022-08-22T20:19:09.583Z,2.50
2022-08-22T20:22:01.043Z,2.75
2022-08-22T20:24:27.676Z,2.72
2022-08-22T20:27:13.474Z,3.17
2022-08-22T20:29:51.525Z,2.45
2022-08-22T20:32:22.974Z,2.80
2022-08-22T20:34:57.062Z,2.50
2022-08-22T20:37:45.466Z,2.72
2022-08-22T20:40:59.575Z,2.58
2022-08-22T20:43:42.463Z,2.30
2022-08-22T20:46:43.867Z,2.53
2022-08-22T20:49:20.224Z,2.63
2022-08-22T20:52:00.071Z,2.58
2022-08-22T20:54:31.403Z,2.47
2022-08-22T20:57:15.932Z,3.15
2022-08-22T20:59:53.772Z,2.80
2022-08-22T21:02:57.045Z,2.70
2022-08-22T21:05:34.056Z,2.25
2022-08-22T21:08:13.390Z,2.15
2022-08-22T21:11:00.109Z,2.35
2022-08-22T21:13:33.835Z,2.58
2022-08-22T21:16:31.202Z,2.83
2022-08-22T21:19:03.195Z,2.40
2022-08-22T21:21:33.254Z,2.97
2022-08-22T21:24:04.601Z,2.90
2022-08-22T21:26:40.526Z,2.40
2022-08-22T21:29:13.239Z,2.42
2022-08-22T21:32:13.841Z,3.00
2022-08-22T21:34:47.891Z,3.25
2022-08-22T21:37:44.065Z,2.50
2022-08-22T21:40:35.545Z,2.75
2022-08-22T21:43:08.247Z,2.90
2022-08-22T21:45:44.305Z,2.30
2022-08-22T21:48:40.839Z,3.47
2022-08-22T21:51:52.925Z,2.67
2022-08-22T21:54:25.447Z,3.25
2022-08-22T21:56:55.639Z,3.33
2022-08-22T21:59:50.981Z,3.22
2022-08-22T22:02:37.165Z,3.35
2022-08-22T22:05:17.015Z,3.13
2022-08-22T22:07:46.951Z,3.42
2022-08-22T22:10:19.696Z,3.55
2022-08-22T22:12:49.228Z,4.20
2022-08-22T22:15:20.772Z,3.78
2022-08-22T22:17:47.735Z,3.72
2022-08-22T22:20:17.124Z,4.38
2022-08-22T22:22:46.090Z,4.22
2022-08-22T22:25:38.901Z,4.70
2022-08-22T22:28:18.570Z,3.95
2022-08-22T22:30:50.407Z,4.28
2022-08-22T22:33:22.743Z,4.57
2022-08-22T22:35:50.727Z,3.88
2022-08-22T22:38:21.976Z,4.13
2022-08-22T22:40:50.950Z,4.70
2022-08-22T22:43:17.754Z,3.80
2022-08-22T22:45:44.444Z,4.22
2022-08-22T22:48:11.114Z,3.67
2022-08-22T22:50:44.071Z,4.80
2022-08-22T22:53:11.924Z,4.03
2022-08-22T22:55:48.068Z,4.25
2022-08-22T22:58:27.852Z,4.00
2022-08-22T23:00:55.343Z,4.40
2022-08-22T23:03:22.909Z,4.90
2022-08-22T23:05:49.566Z,4.90
2022-08-22T23:08:16.349Z,5.00
2022-08-22T23:10:43.050Z,4.93
2022-08-22T23:13:09.892Z,4.13
2022-08-22T23:15:37.127Z,4.60
2022-08-22T23:18:03.979Z,4.50
2022-08-22T23:20:31.051Z,4.13
2022-08-22T23:22:59.481Z,4.28
2022-08-22T23:25:27.002Z,5.32
2022-08-22T23:27:54.308Z,4.70
2022-08-22T23:30:21.832Z,4.35
2022-08-22T23:32:48.679Z,4.90
2022-08-22T23:35:15.434Z,4.90
2022-08-22T23:37:42.129Z,4.80
2022-08-22T23:40:10.415Z,5.10
2022-08-22T23:42:37.400Z,4.60
2022-08-22T23:45:05.258Z,4.38
2022-08-22T23:47:31.947Z,4.32
2022-08-22T23:49:58.684Z,4.72
2022-08-22T23:52:31.092Z,4.50
2022-08-22T23:54:57.876Z,5.03
2022-08-22T23:57:26.539Z,5.00
2022-08-22T23:59:57.791Z,5.43
